createdAt,value
2022-10-02T19:18:17.475Z,100565.72
2022-10-02T19:21:19.232Z,100567.41
2022-10-02T19:24:15.265Z,100572.28
2022-10-02T19:26:52.357Z,100564.44
2022-10-02T19:29:56.026Z,100558.50
2022-10-02T19:32:43.071Z,100564.09
2022-10-02T19:35:18.611Z,100561.72
2022-10-02T19:37:50.337Z,100556.13
2022-10-02T19:40:22.048Z,100551.34
2022-10-02T19:43:02.574Z,100555.31
2022-10-02T19:45:34.040Z,100556.41
2022-10-02T19:48:06.392Z,100561.69
2022-10-02T19:50:52.802Z,100560.56
2022-10-02T19:54:11.296Z,100555.53
2022-10-02T19:56:47.834Z,100557.03
2022-10-02T19:59:28.880Z,100556.03
2022-10-02T20:02:01.030Z,100555.66
2022-10-02T20:04:31.127Z,100552.88
2022-10-02T20:07:00.665Z,100554.53
2022-10-02T20:09:43.616Z,100558.75
2022-10-02T20:12:21.949Z,100563.09
2022-10-02T20:15:13.015Z,100555.28
2022-10-02T20:17:40.691Z,100561.22
2022-10-02T20:20:16.770Z,100558.94
2022-10-02T20:22:58.888Z,100564.09
2022-10-02T20:25:50.282Z,100558.81
2022-10-02T20:28:20.101Z,100557.44
2022-10-02T20:30:58.525Z,100552.31
2022-10-02T20:33:40.085Z,100545.38
2022-10-02T20:36:20.433Z,100550.75
2022-10-02T20:39:13.757Z,100553.41
2022-10-02T20:42:03.081Z,100552.69
2022-10-02T20:44:33.869Z,100555.03
2022-10-02T20:50:40.615Z,100555.88
2022-10-02T20:53:59.590Z,100552.13
2022-10-02T20:56:42.071Z,100548.78
2022-10-02T20:59:19.060Z,100554.53
2022-10-02T21:02:19.178Z,100553.75
2022-10-02T21:05:37.629Z,100555.78
2022-10-02T21:08:47.942Z,100555.41
2022-10-02T21:11:56.720Z,100552.25
2022-10-02T21:14:32.637Z,100550.63
2022-10-02T21:17:25.922Z,100552.13
2022-10-02T21:20:39.331Z,100547.22
2022-10-02T21:23:59.154Z,100546.66
2022-10-02T21:26:41.126Z,100555.22
2022-10-02T21:29:40.428Z,100549.69
2022-10-02T21:33:04.136Z,100562.28
2022-10-02T21:35:46.352Z,100560.50
2022-10-02T21:39:17.635Z,100557.53
2022-10-02T21:42:19.713Z,100556.91
2022-10-02T21:45:24.113Z,100559.00
2022-10-02T21:48:29.030Z,100558.81
2022-10-02T21:51:32.651Z,100558.66
2022-10-02T21:54:36.515Z,100554.25
2022-10-02T21:57:49.679Z,100563.72
2022-10-02T22:00:40.020Z,100556.03
2022-10-02T22:03:10.534Z,100560.88
2022-10-02T22:05:58.981Z,100550.03
2022-10-02T22:08:51.739Z,100559.31
2022-10-02T22:11:51.249Z,100539.34
2022-10-02T22:14:45.555Z,100551.13
2022-10-02T22:17:51.170Z,100558.59
2022-10-02T22:20:50.613Z,100553.25
2022-10-02T22:23:38.862Z,100555.91
2022-10-02T22:26:31.218Z,100563.06
2022-10-02T22:29:10.639Z,100554.78
2022-10-02T22:32:25.538Z,100545.56
2022-10-02T22:35:26.111Z,100561.94
2022-10-02T22:38:22.789Z,100566.53
2022-10-02T22:41:16.617Z,100556.03
2022-10-02T22:44:00.810Z,100553.66
2022-10-02T22:46:53.072Z,100552.13
2022-10-02T22:50:08.898Z,100557.44
2022-10-02T22:52:57.438Z,100560.78
2022-10-02T22:55:29.897Z,100561.06
2022-10-02T22:58:18.298Z,100556.50
2022-10-02T23:01:22.791Z,100557.94
2022-10-02T23:04:10.592Z,100551.50
2022-10-02T23:06:48.649Z,100550.38
2022-10-02T23:09:48.635Z,100554.91
2022-10-02T23:12:38.102Z,100548.31
2022-10-02T23:15:45.587Z,100552.53
2022-10-02T23:18:48.235Z,100547.94
2022-10-02T23:21:43.237Z,100543.03
2022-10-02T23:24:12.320Z,100542.28
2022-10-02T23:26:56.908Z,100540.63
2022-10-02T23:29:53.485Z,100540.88
2022-10-02T23:32:42.695Z,100526.63
2022-10-02T23:35:37.175Z,100535.00
2022-10-02T23:38:24.612Z,100537.59
2022-10-02T23:41:22.208Z,100546.03
2022-10-02T23:44:33.921Z,100540.75
2022-10-02T23:47:29.505Z,100536.06
2022-10-02T23:49:58.947Z,100531.28
2022-10-02T23:52:49.966Z,100536.25
2022-10-02T23:55:57.093Z,100530.81
2022-10-02T23:59:04.686Z,100533.09
